Ana Sayfa
METAR-TAF:

METAR-TAF

Havaalanları :

Port Hope, Michigan, Amerika Birleşik Devletleri

Enlem: 44-01-19N, Boylam: 082-47-35W, yükseklik: 179 m

Güncel hava durumu gözlemi

Rapor saat 02:51 UTC de 43 dakika önce yapıldı.
Rüzgar batı/güneybatıdan 5 kt
Sıcaklık 16°C
Nem 88%
Basınç 1017 hPa

METAR: KP58 240251Z AUTO 25005KT 16/14 A3003 RMK AO1 SLP165 T01610144 51008

Saat: 23:34 (03:34 UTC)


TAF: eksik

4.000'den fazla havaalanı için hava durumu gözlemleri ve tahminleri (METAR ve TAF raporları).

Kullanılabilir istasyonlar harita üzerinde sarı ve kırmızı noktalarla gösterilir.

İstasyonun adını görmek için fareyi noktanın üzerinde gezdirin.

Sonrasında hava gözlem ve tahminlerini görmek için tıklayın.

Haritayı değiştirmek için: yaklaştırmak için siyah artı işaretli yeşil düğmeye ve uzaklaştırmak için de eksi işaretli düğmeye hızla tıklayın; bitişik haritalar için yeşil okları kullanın.


METAR-TAF: